createdAt,value
2017-11-05T00:01:25.809Z,15.10
2017-11-05T00:03:53.394Z,15.77
2017-11-05T00:06:21.004Z,22.77
2017-11-05T00:08:49.347Z,15.20
2017-11-05T00:11:17.706Z,15.80
2017-11-05T00:13:45.292Z,16.73
2017-11-05T00:16:13.610Z,19.10
2017-11-05T00:18:41.203Z,15.70
2017-11-05T00:21:08.785Z,16.47
2017-11-05T00:23:37.135Z,14.57
2017-11-05T00:26:04.721Z,15.50
2017-11-05T00:28:33.091Z,12.77
2017-11-05T00:31:00.676Z,13.23
2017-11-05T00:33:29.033Z,16.67
2017-11-05T00:35:59.290Z,16.43
2017-11-05T00:38:26.898Z,16.40
2017-11-05T00:40:54.481Z,17.30
2017-11-05T00:43:22.101Z,16.83
2017-11-05T00:45:51.612Z,14.13
2017-11-05T00:48:19.282Z,17.43
2017-11-05T00:50:46.997Z,15.23
2017-11-05T00:53:14.590Z,18.80
2017-11-05T00:55:42.190Z,17.03
2017-11-05T00:58:09.779Z,15.73
2017-11-05T01:00:37.380Z,17.53
2017-11-05T01:03:04.980Z,18.47
2017-11-05T01:05:32.575Z,15.70
2017-11-05T01:08:00.179Z,15.70
2017-11-05T01:10:27.758Z,19.23
2017-11-05T01:12:55.371Z,20.67
2017-11-05T01:15:23.134Z,18.60
2017-11-05T01:17:55.384Z,19.67
2017-11-05T01:20:23.075Z,21.87
2017-11-05T01:22:56.643Z,23.60
2017-11-05T01:25:29.625Z,24.17
2017-11-05T01:28:03.734Z,20.60
2017-11-05T01:30:32.060Z,33.70
2017-11-05T01:32:59.791Z,25.60
2017-11-05T01:35:27.374Z,26.60
2017-11-05T01:37:54.947Z,32.17
2017-11-05T01:40:22.629Z,27.33
2017-11-05T01:42:50.219Z,27.13
2017-11-05T01:45:18.568Z,24.17
2017-11-05T01:47:46.144Z,29.90
2017-11-05T01:50:13.741Z,25.50
2017-11-05T01:52:41.320Z,25.80
2017-11-05T01:55:08.880Z,24.73
2017-11-05T01:57:36.473Z,29.97
2017-11-05T02:00:04.007Z,26.47
2017-11-05T02:02:31.585Z,26.50
2017-11-05T02:04:59.177Z,26.53
2017-11-05T02:07:26.739Z,28.53
2017-11-05T02:09:54.295Z,25.77
2017-11-05T02:12:21.906Z,25.37
2017-11-05T02:14:49.465Z,27.57
2017-11-05T02:17:17.048Z,27.50
2017-11-05T02:19:44.699Z,29.00
2017-11-05T02:22:12.258Z,27.60
2017-11-05T02:24:39.847Z,31.27
2017-11-05T02:27:07.427Z,31.37
2017-11-05T02:29:35.002Z,37.17
2017-11-05T02:32:03.318Z,34.13
2017-11-05T02:34:30.904Z,37.83
2017-11-05T02:36:58.547Z,30.93
2017-11-05T02:39:26.121Z,33.43
2017-11-05T02:41:54.059Z,29.00
2017-11-05T02:44:21.638Z,26.60
2017-11-05T02:46:49.223Z,27.07
2017-11-05T02:49:16.887Z,31.13
2017-11-05T02:51:44.450Z,31.93
2017-11-05T02:54:12.775Z,30.00
2017-11-05T02:56:40.375Z,29.50
2017-11-05T02:59:08.023Z,33.87
2017-11-05T03:01:35.583Z,38.13
2017-11-05T03:04:03.187Z,26.90
2017-11-05T03:06:30.778Z,32.37
2017-11-05T03:08:59.122Z,30.37
2017-11-05T03:11:26.726Z,28.73
2017-11-05T03:13:54.422Z,29.67
2017-11-05T03:16:22.003Z,27.30
2017-11-05T03:18:49.567Z,29.63
2017-11-05T03:21:17.130Z,23.93
2017-11-05T03:23:44.685Z,25.50
2017-11-05T03:26:12.474Z,26.13
2017-11-05T03:28:40.024Z,19.43
2017-11-05T03:31:07.630Z,24.17
2017-11-05T03:33:35.234Z,25.20
2017-11-05T03:36:02.799Z,18.57
2017-11-05T03:38:30.375Z,19.77
2017-11-05T03:40:57.970Z,19.13
2017-11-05T03:43:25.549Z,20.00
2017-11-05T03:45:53.119Z,14.67
2017-11-05T03:48:20.707Z,16.50
2017-11-05T03:50:48.345Z,16.60
2017-11-05T03:53:15.901Z,15.03
2017-11-05T03:55:43.480Z,16.50
2017-11-05T03:58:11.826Z,17.90
2017-11-05T04:00:39.375Z,16.87
2017-11-05T04:03:06.919Z,23.73
2017-11-05T04:05:35.257Z,18.30
2017-11-05T04:08:02.876Z,21.57
2017-11-05T04:10:30.533Z,22.87
2017-11-05T04:12:58.090Z,19.57
2017-11-05T04:15:25.686Z,19.30
2017-11-05T04:17:53.242Z,15.70
2017-11-05T04:20:20.820Z,19.63
2017-11-05T04:22:48.402Z,20.00
2017-11-05T04:25:15.981Z,19.30
2017-11-05T04:27:44.310Z,20.57
2017-11-05T04:30:11.886Z,16.87
2017-11-05T04:32:39.427Z,20.47
2017-11-05T04:35:07.055Z,19.63
2017-11-05T04:37:34.615Z,21.77
2017-11-05T04:40:02.186Z,18.23
2017-11-05T04:42:29.767Z,21.03
2017-11-05T04:44:57.319Z,19.80
2017-11-05T04:47:24.895Z,20.00
2017-11-05T04:49:52.485Z,19.00
2017-11-05T04:52:20.043Z,19.23
2017-11-05T04:54:47.608Z,22.57
2017-11-05T04:57:15.173Z,26.60
2017-11-05T04:59:42.983Z,22.00
2017-11-05T05:02:10.514Z,21.70
2017-11-05T05:04:38.851Z,20.17
2017-11-05T05:07:06.439Z,21.40
2017-11-05T05:09:34.011Z,22.50
2017-11-05T05:12:02.348Z,22.13
2017-11-05T05:14:29.925Z,21.83
2017-11-05T05:16:57.690Z,18.50
2017-11-05T05:19:25.251Z,23.33
2017-11-05T05:21:52.944Z,19.87
2017-11-05T05:24:21.253Z,17.30
2017-11-05T05:26:48.807Z,14.57
2017-11-05T05:29:16.471Z,17.13
2017-11-05T05:31:44.052Z,17.93
2017-11-05T05:34:11.608Z,19.80
2017-11-05T05:36:39.147Z,16.90
2017-11-05T05:39:06.791Z,12.90
2017-11-05T05:41:35.169Z,21.10
2017-11-05T05:44:03.548Z,16.77
2017-11-05T05:46:31.878Z,18.77
2017-11-05T05:48:59.482Z,21.77
2017-11-05T05:51:27.821Z,22.40
2017-11-05T05:53:56.349Z,21.67
2017-11-05T05:56:24.695Z,21.90
2017-11-05T05:58:52.247Z,18.40
2017-11-05T06:01:19.852Z,23.10
2017-11-05T06:03:48.173Z,21.87
2017-11-05T06:06:16.039Z,21.07
2017-11-05T06:08:43.615Z,21.07
2017-11-05T06:11:11.199Z,16.83
2017-11-05T06:13:38.764Z,23.00
2017-11-05T06:16:06.427Z,21.53
2017-11-05T06:18:34.014Z,20.00
2017-11-05T06:21:02.355Z,28.10
2017-11-05T06:23:29.943Z,24.07
2017-11-05T06:25:58.266Z,28.00
2017-11-05T06:28:25.854Z,35.30
2017-11-05T06:30:53.496Z,28.90
2017-11-05T06:33:21.102Z,32.67
2017-11-05T06:35:49.470Z,30.80
2017-11-05T06:38:17.076Z,22.20
2017-11-05T06:40:44.659Z,25.83
2017-11-05T06:43:12.309Z,24.67
2017-11-05T06:45:39.892Z,20.47
2017-11-05T06:48:07.531Z,26.00
2017-11-05T06:50:35.131Z,28.47
2017-11-05T06:53:02.710Z,24.40
2017-11-05T06:55:31.102Z,29.03
2017-11-05T06:57:59.435Z,21.70
2017-11-05T07:00:27.135Z,25.47
2017-11-05T07:02:55.494Z,22.07
2017-11-05T07:05:23.059Z,19.27
2017-11-05T07:07:50.634Z,20.00
2017-11-05T07:10:18.985Z,22.90
2017-11-05T07:12:46.571Z,21.37
2017-11-05T07:15:14.922Z,23.03
2017-11-05T07:17:42.496Z,20.00
2017-11-05T07:20:10.049Z,19.60
2017-11-05T07:22:37.626Z,18.30
2017-11-05T07:25:05.481Z,18.40
2017-11-05T07:27:33.066Z,18.67
2017-11-05T07:30:01.391Z,17.83
2017-11-05T07:32:28.972Z,16.00
2017-11-05T07:34:56.540Z,14.80
2017-11-05T07:37:24.121Z,12.30
2017-11-05T07:39:52.478Z,15.40
2017-11-05T07:42:20.047Z,11.77
2017-11-05T07:44:47.641Z,11.80
2017-11-05T07:47:16.003Z,14.37
2017-11-05T07:49:43.570Z,14.50
2017-11-05T07:52:11.917Z,14.30
2017-11-05T07:54:39.483Z,13.27
2017-11-05T07:57:07.105Z,15.70
2017-11-05T07:59:34.670Z,15.83
2017-11-05T08:02:02.248Z,16.13
2017-11-05T08:04:29.810Z,12.50
2017-11-05T08:06:57.404Z,14.23
2017-11-05T08:09:24.977Z,11.17
2017-11-05T08:11:53.318Z,8.50
2017-11-05T08:14:20.921Z,11.00
2017-11-05T08:16:49.249Z,12.13
2017-11-05T08:19:17.582Z,13.93
2017-11-05T08:21:45.183Z,12.20
2017-11-05T08:24:12.832Z,15.57
2017-11-05T08:26:40.439Z,18.63
2017-11-05T08:29:09.172Z,13.60
2017-11-05T08:31:36.770Z,13.07
2017-11-05T08:34:04.348Z,14.33
2017-11-05T08:36:31.976Z,12.60
2017-11-05T08:38:59.545Z,12.60
2017-11-05T08:41:27.119Z,10.07
2017-11-05T08:43:54.855Z,15.37
2017-11-05T08:46:22.441Z,11.40
2017-11-05T08:48:50.251Z,14.70
2017-11-05T08:51:18.657Z,10.50
2017-11-05T08:53:46.234Z,16.03
2017-11-05T08:56:13.844Z,10.47
2017-11-05T08:58:41.402Z,10.63
2017-11-05T09:01:09.775Z,10.03
2017-11-05T09:03:37.338Z,14.03
2017-11-05T09:06:04.909Z,12.90
2017-11-05T09:08:33.242Z,14.53
2017-11-05T09:11:00.806Z,10.43
2017-11-05T09:13:28.436Z,11.40
2017-11-05T09:15:56.019Z,12.23
2017-11-05T09:18:23.631Z,10.57
2017-11-05T09:20:52.014Z,11.63
2017-11-05T09:23:20.349Z,11.30
2017-11-05T09:25:47.952Z,12.43
2017-11-05T09:28:16.449Z,8.17
2017-11-05T09:30:44.012Z,12.57
2017-11-05T09:33:11.606Z,10.57
2017-11-05T09:35:39.367Z,10.63
2017-11-05T09:38:06.951Z,11.73
2017-11-05T09:40:34.518Z,11.50
2017-11-05T09:43:02.121Z,12.13
2017-11-05T09:45:30.445Z,13.17
2017-11-05T09:47:58.035Z,10.20
2017-11-05T09:50:25.654Z,10.33
2017-11-05T09:52:53.261Z,7.63
2017-11-05T09:55:21.595Z,9.10
2017-11-05T09:57:49.203Z,8.10
2017-11-05T10:00:17.511Z,8.73
2017-11-05T10:02:45.227Z,7.53
2017-11-05T10:05:12.828Z,8.60
2017-11-05T10:07:40.447Z,14.70
2017-11-05T10:10:08.072Z,9.63
2017-11-05T10:12:35.644Z,7.77
2017-11-05T10:15:03.244Z,5.83
2017-11-05T10:17:30.811Z,8.57
2017-11-05T10:19:58.403Z,7.63
2017-11-05T10:22:25.979Z,8.10
2017-11-05T10:24:53.578Z,8.83
2017-11-05T10:27:21.182Z,6.90
2017-11-05T10:29:48.763Z,12.03
2017-11-05T10:32:16.389Z,6.87
2017-11-05T10:34:44.756Z,6.83
2017-11-05T10:37:12.369Z,9.95
2017-11-05T10:39:39.947Z,12.23
2017-11-05T10:42:07.523Z,15.20
2017-11-05T10:44:35.143Z,10.73
2017-11-05T10:47:02.772Z,10.20
2017-11-05T10:49:31.143Z,10.10
2017-11-05T10:51:58.725Z,10.00
2017-11-05T10:54:27.080Z,8.53
2017-11-05T10:56:54.869Z,8.40
2017-11-05T10:59:23.191Z,8.80
2017-11-05T11:01:51.530Z,7.63
2017-11-05T11:04:19.115Z,8.40
2017-11-05T11:06:46.723Z,7.77
2017-11-05T11:09:14.287Z,8.07
2017-11-05T11:11:41.918Z,16.37
2017-11-05T11:14:09.508Z,8.93
2017-11-05T11:16:37.124Z,6.80
2017-11-05T11:19:04.734Z,7.27
2017-11-05T11:21:32.353Z,6.60
2017-11-05T11:23:59.956Z,9.87
2017-11-05T11:26:27.551Z,12.07
2017-11-05T11:28:55.116Z,6.20
2017-11-05T11:31:22.820Z,9.33
2017-11-05T11:33:51.306Z,12.50
2017-11-05T11:36:18.923Z,9.20
2017-11-05T11:38:46.518Z,16.20
2017-11-05T11:41:14.102Z,8.90
2017-11-05T11:43:41.768Z,7.23
2017-11-05T11:46:09.570Z,10.17
2017-11-05T11:48:37.158Z,10.10
2017-11-05T11:51:04.754Z,12.60
2017-11-05T11:53:32.331Z,10.97
2017-11-05T11:56:00.713Z,12.60
2017-11-05T11:58:29.107Z,11.87
2017-11-05T12:00:56.703Z,12.70
2017-11-05T12:03:24.299Z,7.47
2017-11-05T12:05:51.884Z,11.23
2017-11-05T12:08:20.269Z,14.03
2017-11-05T12:10:48.666Z,13.40
2017-11-05T12:13:16.273Z,12.60
2017-11-05T12:15:43.901Z,12.90
2017-11-05T12:18:11.530Z,14.60
2017-11-05T12:20:39.902Z,12.60
2017-11-05T12:23:08.278Z,11.47
2017-11-05T12:25:35.845Z,12.83
2017-11-05T12:28:04.201Z,13.90
2017-11-05T12:30:31.796Z,21.00
2017-11-05T12:32:59.431Z,18.97
2017-11-05T12:35:27.048Z,17.70
2017-11-05T12:37:55.418Z,22.97
2017-11-05T12:40:23.044Z,17.00
2017-11-05T12:42:50.618Z,18.30
2017-11-05T12:45:19.048Z,23.90
2017-11-05T12:47:46.621Z,26.50
2017-11-05T12:50:14.227Z,15.10
2017-11-05T12:52:41.814Z,18.60
2017-11-05T12:55:09.438Z,20.60
2017-11-05T12:57:37.815Z,18.57
2017-11-05T13:00:06.180Z,21.73
2017-11-05T13:02:33.803Z,18.90
2017-11-05T13:05:02.366Z,17.07
2017-11-05T13:07:29.994Z,24.33
2017-11-05T13:09:57.632Z,19.60
2017-11-05T13:12:25.258Z,22.43
2017-11-05T13:14:52.893Z,24.67
2017-11-05T13:17:21.252Z,23.57
2017-11-05T13:19:48.824Z,27.07
2017-11-05T13:22:16.440Z,21.43
2017-11-05T13:24:44.053Z,30.17
2017-11-05T13:27:12.398Z,24.60
2017-11-05T13:29:40.324Z,26.73
2017-11-05T13:32:07.878Z,26.53
2017-11-05T13:34:35.460Z,28.97
2017-11-05T13:37:03.131Z,21.23
2017-11-05T13:39:30.804Z,24.23
2017-11-05T13:41:58.394Z,19.53
2017-11-05T13:44:25.979Z,21.67
2017-11-05T13:46:54.373Z,21.70
2017-11-05T13:49:21.997Z,23.37
2017-11-05T13:51:49.606Z,21.23
2017-11-05T13:54:17.234Z,22.70
2017-11-05T13:56:45.583Z,24.97
2017-11-05T13:59:13.210Z,20.60
2017-11-05T14:01:40.974Z,26.17
2017-11-05T14:04:08.551Z,17.97
2017-11-05T14:06:36.161Z,19.63
2017-11-05T14:09:04.527Z,19.40
2017-11-05T14:11:32.082Z,22.70
2017-11-05T14:13:59.707Z,23.63
2017-11-05T14:16:27.332Z,22.53
2017-11-05T14:18:55.676Z,20.00
2017-11-05T14:21:23.685Z,17.83
2017-11-05T14:23:52.071Z,17.20
2017-11-05T14:26:19.670Z,16.77
2017-11-05T14:28:47.287Z,19.53
2017-11-05T14:31:15.903Z,15.27
2017-11-05T14:33:47.262Z,16.30
2017-11-05T14:36:14.851Z,16.63
2017-11-05T14:38:42.451Z,16.40
2017-11-05T14:41:10.797Z,17.50
2017-11-05T14:43:38.416Z,15.90
2017-11-05T14:46:05.987Z,14.23
2017-11-05T14:48:33.583Z,17.83
2017-11-05T14:51:01.206Z,14.23
2017-11-05T14:53:28.790Z,14.73
2017-11-05T14:55:56.394Z,19.73
2017-11-05T14:58:24.770Z,17.97
2017-11-05T15:00:53.115Z,14.90
2017-11-05T15:03:20.708Z,15.87
2017-11-05T15:05:49.058Z,17.53
2017-11-05T15:08:16.711Z,22.67
2017-11-05T15:10:44.311Z,20.27
2017-11-05T15:13:12.669Z,16.17
2017-11-05T15:15:40.271Z,20.47
2017-11-05T15:18:07.907Z,15.40
2017-11-05T15:20:36.276Z,25.70
2017-11-05T15:23:03.932Z,15.33
2017-11-05T15:25:32.312Z,14.97
2017-11-05T15:27:59.926Z,14.13
2017-11-05T15:30:27.662Z,14.37
2017-11-05T15:32:56.386Z,11.53
2017-11-05T15:35:23.947Z,11.93
2017-11-05T15:37:51.524Z,15.20
2017-11-05T15:40:19.120Z,13.83
2017-11-05T15:42:46.690Z,13.33
2017-11-05T15:45:15.088Z,19.77
2017-11-05T15:47:43.449Z,19.53
2017-11-05T15:50:11.090Z,13.33
2017-11-05T15:52:38.756Z,12.10
2017-11-05T15:55:06.332Z,11.20
2017-11-05T15:57:33.920Z,15.23
2017-11-05T16:00:01.513Z,11.53
2017-11-05T16:02:29.135Z,14.33
2017-11-05T16:04:57.500Z,16.00
2017-11-05T16:07:25.849Z,14.00
2017-11-05T16:09:53.427Z,12.17
2017-11-05T16:12:21.049Z,13.27
2017-11-05T16:14:48.653Z,14.13
2017-11-05T16:17:16.233Z,19.10
2017-11-05T16:19:44.600Z,18.20
2017-11-05T16:22:12.974Z,13.00
2017-11-05T16:24:41.363Z,13.57
2017-11-05T16:27:09.727Z,14.03
2017-11-05T16:29:37.293Z,12.67
2017-11-05T16:32:06.086Z,17.00
2017-11-05T16:34:33.698Z,13.33
2017-11-05T16:37:01.310Z,16.00
2017-11-05T16:39:28.916Z,17.00
2017-11-05T16:41:56.495Z,20.13
2017-11-05T16:44:24.103Z,17.33
2017-11-05T16:46:52.508Z,13.90
2017-11-05T16:49:20.151Z,18.87
2017-11-05T16:51:48.510Z,11.93
2017-11-05T16:54:16.443Z,12.63
2017-11-05T16:56:44.009Z,13.97
2017-11-05T16:59:11.580Z,13.17
2017-11-05T17:01:39.915Z,8.87
2017-11-05T17:04:07.555Z,9.80
2017-11-05T17:06:35.891Z,13.03
2017-11-05T17:09:03.499Z,11.10
2017-11-05T17:11:31.836Z,10.10
2017-11-05T17:13:59.436Z,13.53
2017-11-05T17:16:27.780Z,11.97
2017-11-05T17:18:55.443Z,9.70
2017-11-05T17:21:23.044Z,17.70
2017-11-05T17:23:56.263Z,11.30
2017-11-05T17:26:23.867Z,8.67
2017-11-05T17:28:51.448Z,10.40
2017-11-05T17:31:19.039Z,10.87
2017-11-05T17:33:46.655Z,9.70
2017-11-05T17:36:14.235Z,10.60
2017-11-05T17:38:42.608Z,15.73
2017-11-05T17:41:10.640Z,13.30
2017-11-05T17:43:38.231Z,12.93
2017-11-05T17:46:05.818Z,17.43
2017-11-05T17:48:33.410Z,17.13
2017-11-05T17:51:01.817Z,15.03
2017-11-05T17:53:29.399Z,13.90
2017-11-05T17:55:57.726Z,14.00
2017-11-05T17:58:25.341Z,13.83
2017-11-05T18:00:52.948Z,15.00
2017-11-05T18:03:20.774Z,15.57
2017-11-05T18:05:48.323Z,15.00
2017-11-05T18:08:15.923Z,14.97
2017-11-05T18:10:43.603Z,12.33
2017-11-05T18:13:11.199Z,15.83
2017-11-05T18:15:38.767Z,17.53
2017-11-05T18:18:06.390Z,11.33
2017-11-05T18:20:33.991Z,16.40
2017-11-05T18:23:01.586Z,15.13
2017-11-05T18:25:29.974Z,20.70
2017-11-05T18:27:57.573Z,18.73
2017-11-05T18:30:25.183Z,18.60
2017-11-05T18:32:53.548Z,18.73
2017-11-05T18:35:21.160Z,18.70
2017-11-05T18:37:48.735Z,22.10
2017-11-05T18:40:16.491Z,16.07
2017-11-05T18:42:44.141Z,16.00
2017-11-05T18:45:11.724Z,16.70
2017-11-05T18:47:39.307Z,18.27
2017-11-05T18:50:15.904Z,21.27
2017-11-05T18:52:44.086Z,23.80
2017-11-05T18:55:11.747Z,17.13
2017-11-05T18:57:40.144Z,18.60
2017-11-05T19:00:07.766Z,18.60
2017-11-05T19:02:35.370Z,25.00
2017-11-05T19:05:03.020Z,23.43
2017-11-05T19:07:31.442Z,20.87
2017-11-05T19:09:59.049Z,22.27
2017-11-05T19:12:27.402Z,20.60
2017-11-05T19:14:54.957Z,20.97
2017-11-05T19:17:22.642Z,25.97
2017-11-05T19:19:51.004Z,30.70
2017-11-05T19:22:18.639Z,28.10
2017-11-05T19:24:46.215Z,27.80
2017-11-05T19:27:13.833Z,34.33
2017-11-05T19:29:41.380Z,27.87
2017-11-05T19:32:09.756Z,31.07
2017-11-05T19:34:38.102Z,28.00
2017-11-05T19:37:05.838Z,33.23
2017-11-05T19:39:33.436Z,34.07
2017-11-05T19:42:01.033Z,30.30
2017-11-05T19:44:29.400Z,27.40
2017-11-05T19:46:58.452Z,26.90
2017-11-05T19:49:26.071Z,37.50
2017-11-05T19:54:29.042Z,32.53
2017-11-05T19:56:56.679Z,31.97
2017-11-05T19:59:24.352Z,32.20
2017-11-05T20:01:52.002Z,28.00
2017-11-05T20:04:19.568Z,32.53
2017-11-05T20:06:47.196Z,29.30
2017-11-05T20:09:14.849Z,35.87
2017-11-05T20:11:42.529Z,31.93
2017-11-05T20:14:10.108Z,33.13
2017-11-05T20:16:37.714Z,28.93
2017-11-05T20:19:06.168Z,33.10
2017-11-05T20:21:33.755Z,38.90
2017-11-05T20:24:01.375Z,34.63
2017-11-05T20:26:28.983Z,36.13
2017-11-05T20:28:57.371Z,35.37
2017-11-05T20:31:25.766Z,27.60
2017-11-05T20:33:53.370Z,28.00
2017-11-05T20:36:20.986Z,31.20
2017-11-05T20:38:48.609Z,31.37
2017-11-05T20:41:16.195Z,33.93
2017-11-05T20:43:44.593Z,39.30
2017-11-05T20:46:12.274Z,30.30
2017-11-05T20:48:39.867Z,30.13
2017-11-05T20:51:07.500Z,39.20
2017-11-05T20:53:35.194Z,30.10
2017-11-05T20:56:02.822Z,34.20
2017-11-05T20:58:30.724Z,27.47
2017-11-05T21:00:58.344Z,33.90
2017-11-05T21:03:25.930Z,32.03
2017-11-05T21:05:53.560Z,31.70
2017-11-05T21:08:21.160Z,25.20
2017-11-05T21:10:48.731Z,31.67
2017-11-05T21:13:16.388Z,27.37
2017-11-05T21:15:43.996Z,25.60
2017-11-05T21:18:11.581Z,26.10
2017-11-05T21:20:39.167Z,29.30
2017-11-05T21:23:06.813Z,27.67
2017-11-05T21:25:34.411Z,24.20
2017-11-05T21:28:02.349Z,29.13
2017-11-05T21:30:29.950Z,29.20
2017-11-05T21:32:58.323Z,28.10
2017-11-05T21:35:26.345Z,26.80
2017-11-05T21:37:53.921Z,22.70
2017-11-05T21:40:21.547Z,22.93
2017-11-05T21:42:49.251Z,23.03
2017-11-05T21:45:16.838Z,26.60
2017-11-05T21:47:44.466Z,26.70
2017-11-05T21:50:12.082Z,25.63
2017-11-05T21:52:40.449Z,24.80
2017-11-05T21:55:08.039Z,27.47
2017-11-05T21:57:35.646Z,20.60
2017-11-05T22:00:03.223Z,19.10
2017-11-05T22:02:30.827Z,20.70
2017-11-05T22:04:59.163Z,23.20
2017-11-05T22:07:26.815Z,24.17
2017-11-05T22:09:54.375Z,22.60
2017-11-05T22:12:22.005Z,23.53
2017-11-05T22:14:49.575Z,23.30
2017-11-05T22:17:17.176Z,25.40
2017-11-05T22:19:44.732Z,29.23
2017-11-05T22:22:12.325Z,29.97
2017-11-05T22:24:40.687Z,25.23
2017-11-05T22:27:09.315Z,25.93
2017-11-05T22:29:37.260Z,23.67
2017-11-05T22:32:04.883Z,23.47
2017-11-05T22:34:32.453Z,27.17
2017-11-05T22:37:00.374Z,23.43
2017-11-05T22:39:28.003Z,27.13
2017-11-05T22:41:56.558Z,22.97
2017-11-05T22:44:24.395Z,31.63
2017-11-05T22:46:51.971Z,24.43
2017-11-05T22:49:19.554Z,25.73
2017-11-05T22:51:47.157Z,25.60
2017-11-05T22:54:14.726Z,27.17
2017-11-05T22:56:42.339Z,27.93
2017-11-05T22:59:10.089Z,21.33
2017-11-05T23:01:37.664Z,31.47
2017-11-05T23:04:05.227Z,26.23
2017-11-05T23:06:32.895Z,32.03
2017-11-05T23:09:00.451Z,30.80
2017-11-05T23:11:28.374Z,27.47
2017-11-05T23:13:55.957Z,28.43
2017-11-05T23:16:23.575Z,38.47
2017-11-05T23:18:51.148Z,32.53
2017-11-05T23:21:18.941Z,40.60
2017-11-05T23:23:46.669Z,35.70
2017-11-05T23:26:14.241Z,40.13
2017-11-05T23:28:41.833Z,35.50
2017-11-05T23:31:09.459Z,33.43
2017-11-05T23:33:37.024Z,32.93
2017-11-05T23:36:04.619Z,34.33
2017-11-05T23:38:32.198Z,34.37
2017-11-05T23:40:59.770Z,30.27
2017-11-05T23:43:28.135Z,35.43
2017-11-05T23:45:55.735Z,31.20
2017-11-05T23:48:24.238Z,34.97
2017-11-05T23:50:52.013Z,29.93
2017-11-05T23:53:19.577Z,30.20
2017-11-05T23:55:47.140Z,31.20
2017-11-05T23:58:14.717Z,33.53
